WetterOnline ( https://www.wetteronline.at )

Wetter aktuell Gießen

Aktuelles Wetter: Gießen (195m)

6-stündlich | Neueste Meldungen
Ortszeit Temperatur Wetter
Sa, 24.09. 14:00 18.1° C wolkig
Sa, 24.09. 8:00 6.5° C bewölkt
Sa, 24.09. 2:00 8.8° C bedeckt
Fr, 23.09. 20:00 14.0° C bedeckt
Fr, 23.09. 14:00 17.0° C wolkig
Fr, 23.09. 8:00 4.5° C bewölkt
Fr, 23.09. 2:00 5.9° C leicht bewölkt
Do, 22.09. 20:00 14.6° C leicht bewölkt
Ortszeit Temperatur Wetter
Sa, 24.09. 18:30 17.0° C bedeckt
Sa, 24.09. 18:20 17.0° C bedeckt
Sa, 24.09. 18:10 17.1° C bedeckt
Sa, 24.09. 18:00 17.2° C bedeckt
Sa, 24.09. 17:50 17.2° C bedeckt
Sa, 24.09. 17:40 17.3° C bedeckt
Sa, 24.09. 17:30 17.3° C bedeckt
Sa, 24.09. 17:00 17.7° C bewölkt
Sa, 24.09. 16:30 18.7° C leicht bewölkt
Sa, 24.09. 16:00 18.4° C bewölkt
Sa, 24.09. 15:30 19.0° C wolkig
Ortszeit Relative Feuchte Sichtweite
Sa, 24.09. 14:00 52% 40 km
Sa, 24.09. 8:00 97% 16 km
Sa, 24.09. 2:00 89% 50 km
Fr, 23.09. 20:00 68% 55 km
Fr, 23.09. 14:00 52% 40 km
Fr, 23.09. 8:00 96% 22 km
Fr, 23.09. 2:00 93% 35 km
Do, 22.09. 20:00 52% 60 km
Ortszeit Relative Feuchte Sichtweite
Sa, 24.09. 18:30 52% 55 km
Sa, 24.09. 18:20 52% -
Sa, 24.09. 18:10 50% -
Sa, 24.09. 18:00 49% 45 km
Sa, 24.09. 17:50 49% -
Sa, 24.09. 17:40 51% -
Sa, 24.09. 17:30 53% 55 km
Sa, 24.09. 17:00 50% >70 km
Sa, 24.09. 16:30 47% 45 km
Sa, 24.09. 16:00 49% 45 km
Sa, 24.09. 15:30 50% 45 km
Ortszeit Niederschlagsmenge Niederschlagsart
Sa, 24.09. 14:00 0.0 l/m2 in 6 Std. -
Sa, 24.09. 8:00 0.0 l/m2 in 12 Std. -
Sa, 24.09. 2:00 0.0 l/m2 in 6 Std. -
Fr, 23.09. 20:00 0.0 l/m2 in 12 Std. -
Fr, 23.09. 14:00 0.0 l/m2 in 6 Std. -
Fr, 23.09. 8:00 0.0 l/m2 in 12 Std. -
Fr, 23.09. 2:00 0.0 l/m2 in 6 Std. -
Do, 22.09. 20:00 0.0 l/m2 in 12 Std. -
Ortszeit Niederschlagsmenge Niederschlagsart
Sa, 24.09. 18:30 0.0 l/m2 in 1 Std. -
Sa, 24.09. 18:20 keine Meldung -
Sa, 24.09. 18:10 keine Meldung -
Sa, 24.09. 18:00 0.0 l/m2 in 1 Std. -
Sa, 24.09. 17:50 keine Meldung -
Sa, 24.09. 17:40 keine Meldung -
Sa, 24.09. 17:30 0.0 l/m2 in 1 Std. -
Sa, 24.09. 17:00 0.0 l/m2 in 1 Std. -
Sa, 24.09. 16:30 0.0 l/m2 in 1 Std. -
Sa, 24.09. 16:00 0.0 l/m2 in 1 Std. -
Sa, 24.09. 15:30 0.0 l/m2 in 1 Std. -
Ortszeit Stärke Spitze Richtung
km/h Bft. km/h Grad Sektor
Sa, 24.09. 14:00 4 1 11 210° SW
Sa, 24.09. 8:00 0 0 7 - -
Sa, 24.09. 2:00 4 1 7 170° S
Fr, 23.09. 20:00 6 1 17 290° W
Fr, 23.09. 14:00 7 2 19 170° S
Fr, 23.09. 8:00 4 1 11 50° NO
Fr, 23.09. 2:00 4 1 11 40° NO
Do, 22.09. 20:00 6 1 37 160° S
Ortszeit Stärke Spitze Richtung
km/h Bft. km/h Grad Sektor
Sa, 24.09. 18:30 6 1 11 130° SO
Sa, 24.09. 18:20 6 1 - 130° SO
Sa, 24.09. 18:10 4 1 - 140° SO
Sa, 24.09. 18:00 7 2 14 130° SO
Sa, 24.09. 17:50 7 2 - 130° SO
Sa, 24.09. 17:40 7 2 - 140° SO
Sa, 24.09. 17:30 7 2 14 130° SO
Sa, 24.09. 17:00 9 2 17 150° SO
Sa, 24.09. 16:30 7 2 18 110° O
Sa, 24.09. 16:00 4 1 11 20° N
Sa, 24.09. 15:30 6 1 11 80° O
Ortszeit Untergrenze Bedeckung Gattung
total tief tief mittel hoch
Sa, 24.09. 14:00 2400 m 8/8 2/8 - - -
Sa, 24.09. 8:00 4500 m 7/8 7/8 - - -
Sa, 24.09. 2:00 5100 m 8/8 8/8 - - -
Fr, 23.09. 20:00 4200 m 8/8 8/8 - - -
Fr, 23.09. 14:00 5400 m 8/8 8/8 - - -
Fr, 23.09. 8:00 6900 m 8/8 6/8 - - -
Fr, 23.09. 2:00 10500 m 6/8 0/8 - - -
Do, 22.09. 20:00 10500 m 3/8 0/8 - - -
Ortszeit Bedeckungsgrad in Achtel und Wolkenuntergrenze
Sa, 24.09. 18:30 8(1500m)
Sa, 24.09. 18:20 8(1500m)
Sa, 24.09. 18:10 8
Sa, 24.09. 18:00 8(1500m)
Sa, 24.09. 17:50 8(1500m)
Sa, 24.09. 17:40 8
Sa, 24.09. 17:30 5(1500m) 8(2700m)
Sa, 24.09. 17:00 6(1800m) 7(3000m) 8(3900m)
Sa, 24.09. 16:30 1(1500m) 5(3300m) 6(3900m)
Sa, 24.09. 16:00 4(1800m) 8(3600m)
Sa, 24.09. 15:30 1(2100m) 8(3600m)
Ortszeit Luftdruck NN (hPa) Tendenz (hPa in 3 Std.)
Sa, 24.09. 14:00 1012 - 0,7
Sa, 24.09. 8:00 1014 - 0,2
Sa, 24.09. 2:00 1015 - 0,4
Fr, 23.09. 20:00 1015 - 0,5
Fr, 23.09. 14:00 1017 - 1,6
Fr, 23.09. 8:00 1020 - 0,4
Fr, 23.09. 2:00 1021 - 0,5
Do, 22.09. 20:00 1021 - 0,7
Ortszeit Luftdruck NN (hPa) Tendenz (hPa in 3 Std.)
Sa, 24.09. 18:30 1011 - 0,2
Sa, 24.09. 18:20 1011 keine Meldung
Sa, 24.09. 18:10 1011 keine Meldung
Sa, 24.09. 18:00 1011 - 0,4
Sa, 24.09. 17:50 1011 keine Meldung
Sa, 24.09. 17:40 1011 keine Meldung
Sa, 24.09. 17:30 1011 - 0,7
Sa, 24.09. 17:00 1011 - 0,9
Sa, 24.09. 16:30 1011 - 1,1
Sa, 24.09. 16:00 1011 - 1,1
Sa, 24.09. 15:30 1011 - 1,1
Ortszeit Schneehöhe (cm)
Sa, 24.09. 14:00 0
Sa, 24.09. 8:00 0
Sa, 24.09. 2:00 0
Fr, 23.09. 20:00 0
Fr, 23.09. 14:00 0
Fr, 23.09. 8:00 0
Fr, 23.09. 2:00 0
Do, 22.09. 20:00 0
Ortszeit Schneehöhe (cm)
Sa, 24.09. 18:30 0
Sa, 24.09. 18:20 0
Sa, 24.09. 18:10 0
Sa, 24.09. 18:00 0
Sa, 24.09. 17:50 0
Sa, 24.09. 17:40 0
Sa, 24.09. 17:30 0
Sa, 24.09. 17:00 0
Sa, 24.09. 16:30 0
Sa, 24.09. 16:00 0
Sa, 24.09. 15:30 0
Link zu dieser Seite / Seite empfehlen

Das Wetter in ...